San Juan, PR (00927)

7:54 PM AST on April 18, 2015 (GMT -0400)
San Ignacio | | Change Station
CLOSE
Current Station
Personal Weather Station
Location: San Juan, PR
Elevation: 171 ft
Nearby Weather Stations

Elev 171 ft 18.38 °N, 66.07 °W | Updated 8 seconds ago

Partly Cloudy
Partly Cloudy
79.7 °F
Feels Like 85 °F
N
6.1
Wind Variable Wind from South
Gusts 9.8 mph

Today
High -- | Low -- °F
--% Chance of Precip.
Yesterday
High -- | Low -- °F
Precip. -- in
6:05 AM 6:41 PM
New Moon, 0% visible
Pressure 29.99 in
Visibility 10.0 miles
Clouds Few 3200 ft
Heat Index 85 °F
Dew Point 77 °F
Humidity 92%
Rainfall 0.00 in
Snow Depth Not available.
UV 0 out of 12
Pollen Not available.
Air Quality Not available.
Flu Activity Sporadic
METAR TJSJ 182256Z 11004KT 10SM FEW032 28/22 A2999 RMK AO2 SLP156 T02780222 $

More Conditions Fewer Conditions

Pressure 29.99 in
Visibility 10.0 miles
Clouds Few 3200 ft
Heat Index 85 °F
Dew Point 77 °F
Humidity 92%
Rainfall 0.00 in
Snow Depth Not available.
UV 0 out of 12
Pollen Not available.
Air Quality Not available.
Flu Activity Sporadic
METAR TJSJ 182256Z 11004KT 10SM FEW032 28/22 A2999 RMK AO2 SLP156 T02780222 $

More Conditions Fewer Conditions

10-Day Weather Forecast

Almanac

Astronomy

Apr. 18, 2015 Rise Set
Actual Time
Civil Twilight
Nautical Twilight
Astronomical Twilight
Moon
Length of Visible Light
Length of Day
Tomorrow will be .
, % of the Moon is Illuminated

Today's Extremes

State Highs State Lows

Community

WunderPhotos

Upload Photos

1,814,580 photos uploaded!

WunderBlogs® & News

Nearby

Air Quality

  Air Quality AQ Index Pollutant
Not available.

Snow Depth

Station Depth Elevation

Earthquake Activity

City Distance Mag. Time & Date
Minimum magnitude displayed is 2.5.

Coastal Water Temperatures

Place Temperature

Stations

Nearby Weather Stations

Station Location Temp. Windchill Dew Point Humidity Wind Precip. Elev Updated Type